createdAt,value
2022-09-07T00:00:53.410Z,100.00
2022-09-07T00:03:20.151Z,100.00
2022-09-07T00:05:48.772Z,100.00
2022-09-07T00:08:17.225Z,100.00
2022-09-07T00:10:52.590Z,100.00
2022-09-07T00:13:19.022Z,100.00
2022-09-07T00:15:45.501Z,100.00
2022-09-07T00:18:11.913Z,100.00
2022-09-07T00:20:38.321Z,100.00
2022-09-07T00:23:04.702Z,100.00
2022-09-07T00:25:32.178Z,100.00
2022-09-07T00:27:59.245Z,100.00
2022-09-07T00:30:25.653Z,100.00
2022-09-07T00:32:52.052Z,100.00
2022-09-07T00:35:18.416Z,100.00
2022-09-07T00:37:44.777Z,100.00
2022-09-07T00:40:11.420Z,100.00
2022-09-07T00:42:37.846Z,100.00
2022-09-07T00:45:16.497Z,100.00
2022-09-07T00:47:55.143Z,100.00
2022-09-07T00:50:37.848Z,100.00
2022-09-07T00:53:10.521Z,100.00
2022-09-07T00:55:39.996Z,100.00
2022-09-07T00:58:07.227Z,100.00
2022-09-07T01:00:33.697Z,100.00
2022-09-07T01:03:01.416Z,100.00
2022-09-07T01:05:33.765Z,100.00
2022-09-07T01:08:00.174Z,100.00
2022-09-07T01:10:31.664Z,100.00
2022-09-07T01:12:59.704Z,100.00
2022-09-07T01:15:41.551Z,100.00
2022-09-07T01:18:21.592Z,100.00
2022-09-07T01:21:03.341Z,100.00
2022-09-07T01:24:18.990Z,100.00
2022-09-07T01:27:04.175Z,100.00
2022-09-07T01:29:40.348Z,100.00
2022-09-07T01:32:38.584Z,100.00
2022-09-07T01:35:15.169Z,100.00
2022-09-07T01:37:57.302Z,100.00
2022-09-07T01:40:56.366Z,100.00
2022-09-07T01:43:36.776Z,100.00
2022-09-07T01:46:09.075Z,100.00
2022-09-07T01:48:39.056Z,100.00
2022-09-07T01:51:11.454Z,100.00
2022-09-07T01:53:43.708Z,100.00
2022-09-07T01:56:24.492Z,100.00
2022-09-07T01:58:58.605Z,100.00
2022-09-07T02:01:24.985Z,100.00
2022-09-07T02:03:54.069Z,100.00
2022-09-07T02:06:34.722Z,100.00
2022-09-07T02:09:07.349Z,100.00
2022-09-07T02:11:42.195Z,100.00
2022-09-07T02:14:18.246Z,100.00
2022-09-07T02:16:57.801Z,100.00
2022-09-07T02:19:28.356Z,100.00
2022-09-07T02:22:04.758Z,100.00
2022-09-07T02:24:35.346Z,100.00
2022-09-07T02:27:08.321Z,100.00
2022-09-07T02:29:35.401Z,100.00
2022-09-07T02:32:02.130Z,100.00
2022-09-07T02:34:28.504Z,100.00
2022-09-07T02:36:57.606Z,100.00
2022-09-07T02:39:23.981Z,100.00
2022-09-07T02:41:50.421Z,100.00
2022-09-07T02:44:31.618Z,100.00
2022-09-07T02:47:26.500Z,100.00
2022-09-07T02:50:17.489Z,100.00
2022-09-07T02:53:10.643Z,100.00
2022-09-07T02:56:09.685Z,100.00
2022-09-07T02:58:54.143Z,100.00
2022-09-07T03:01:39.387Z,100.00
2022-09-07T03:04:20.828Z,100.00
2022-09-07T03:07:02.832Z,100.00
2022-09-07T03:09:37.698Z,100.00
2022-09-07T03:12:05.360Z,100.00
2022-09-07T03:14:33.650Z,100.00
2022-09-07T03:17:01.698Z,100.00
2022-09-07T03:19:28.068Z,100.00
2022-09-07T03:21:54.493Z,100.00
2022-09-07T03:24:20.847Z,100.00
2022-09-07T03:26:48.597Z,100.00
2022-09-07T03:29:15.432Z,100.00
2022-09-07T03:31:41.832Z,100.00
2022-09-07T03:34:08.521Z,100.00
2022-09-07T03:36:35.281Z,100.00
2022-09-07T03:39:02.316Z,100.00
2022-09-07T03:41:29.061Z,100.00
2022-09-07T03:43:55.558Z,100.00
2022-09-07T03:46:22.513Z,100.00
2022-09-07T03:48:50.249Z,100.00
2022-09-07T03:51:18.033Z,100.00
2022-09-07T03:53:46.235Z,100.00
2022-09-07T03:56:17.990Z,100.00
2022-09-07T03:58:45.910Z,100.00
2022-09-07T04:01:19.311Z,100.00
2022-09-07T04:03:46.726Z,100.00
2022-09-07T04:06:13.549Z,100.00
2022-09-07T04:08:41.160Z,100.00
2022-09-07T04:11:10.732Z,100.00
2022-09-07T04:13:37.416Z,100.00
2022-09-07T04:16:17.069Z,100.00
2022-09-07T04:18:44.156Z,100.00
2022-09-07T04:21:11.180Z,100.00
2022-09-07T04:23:39.493Z,100.00
2022-09-07T04:26:06.564Z,100.00
2022-09-07T04:28:33.044Z,100.00
2022-09-07T04:31:03.135Z,100.00
2022-09-07T04:33:32.734Z,100.00
2022-09-07T04:36:00.724Z,100.00
2022-09-07T04:38:28.032Z,100.00
2022-09-07T04:41:02.896Z,100.00
2022-09-07T04:43:30.005Z,100.00
2022-09-07T04:45:56.617Z,100.00
2022-09-07T04:48:23.201Z,100.00
2022-09-07T04:50:49.606Z,100.00
2022-09-07T04:53:16.015Z,100.00
2022-09-07T04:55:42.441Z,100.00
2022-09-07T04:58:08.935Z,100.00
2022-09-07T05:00:36.481Z,100.00
2022-09-07T05:03:02.856Z,100.00
2022-09-07T05:05:29.216Z,100.00
2022-09-07T05:07:55.620Z,100.00
2022-09-07T05:10:22.005Z,100.00
2022-09-07T05:12:48.361Z,100.00
2022-09-07T05:15:14.840Z,100.00
2022-09-07T05:17:41.211Z,100.00
2022-09-07T05:20:07.924Z,100.00
2022-09-07T05:22:35.535Z,100.00
2022-09-07T05:25:01.893Z,100.00
2022-09-07T05:27:28.266Z,100.00
2022-09-07T05:30:03.178Z,100.00
2022-09-07T05:32:30.802Z,100.00
2022-09-07T05:34:57.178Z,100.00
2022-09-07T05:37:23.821Z,100.00
2022-09-07T05:39:52.303Z,100.00
2022-09-07T05:42:18.789Z,100.00
2022-09-07T05:44:45.659Z,100.00
2022-09-07T05:47:12.829Z,100.00
2022-09-07T05:49:39.416Z,100.00
2022-09-07T05:52:05.892Z,100.00
2022-09-07T05:54:32.295Z,100.00
2022-09-07T05:56:58.669Z,100.00
2022-09-07T05:59:25.041Z,100.00
2022-09-07T06:01:51.575Z,100.00
2022-09-07T06:04:18.060Z,100.00
2022-09-07T06:06:59.084Z,100.00
2022-09-07T06:09:31.212Z,100.00
2022-09-07T06:11:57.634Z,100.00
2022-09-07T06:14:24.061Z,100.00
2022-09-07T06:16:50.535Z,100.00
2022-09-07T06:19:16.971Z,100.00
2022-09-07T06:21:43.476Z,100.00
2022-09-07T06:24:09.973Z,100.00
2022-09-07T06:26:36.355Z,100.00
2022-09-07T06:29:03.666Z,100.00
2022-09-07T06:31:30.095Z,100.00
2022-09-07T06:33:57.297Z,100.00
2022-09-07T06:36:27.211Z,100.00
2022-09-07T06:38:55.715Z,100.00
2022-09-07T06:44:12.244Z,100.00
2022-09-07T06:49:25.793Z,100.00
2022-09-07T06:51:52.249Z,100.00
2022-09-07T06:57:08.604Z,100.00
2022-09-07T06:59:35.465Z,100.00
2022-09-07T07:02:02.164Z,100.00
2022-09-07T07:04:28.576Z,100.00
2022-09-07T07:06:54.937Z,100.00
2022-09-07T07:09:21.313Z,100.00
2022-09-07T07:11:48.159Z,100.00
2022-09-07T07:14:15.343Z,100.00
2022-09-07T07:16:41.904Z,100.00
2022-09-07T07:19:08.681Z,100.00
2022-09-07T07:21:55.218Z,100.00
2022-09-07T07:24:22.716Z,100.00
2022-09-07T07:26:49.795Z,100.00
2022-09-07T07:29:18.731Z,100.00
2022-09-07T07:31:46.822Z,100.00
2022-09-07T07:34:13.290Z,100.00
2022-09-07T07:36:39.688Z,100.00
2022-09-07T07:39:06.065Z,100.00
2022-09-07T07:44:19.833Z,100.00
2022-09-07T07:46:50.605Z,100.00
2022-09-07T07:49:17.448Z,100.00
2022-09-07T07:54:30.125Z,100.00
2022-09-07T07:56:56.460Z,100.00
2022-09-07T07:59:23.172Z,100.00
2022-09-07T08:01:49.557Z,100.00
2022-09-07T08:04:16.130Z,100.00
2022-09-07T08:06:42.597Z,100.00
2022-09-07T08:09:09.132Z,100.00
2022-09-07T08:11:35.482Z,100.00
2022-09-07T08:14:05.855Z,100.00
2022-09-07T08:16:32.990Z,100.00
2022-09-07T08:18:59.524Z,100.00
2022-09-07T08:21:25.824Z,100.00
2022-09-07T08:23:52.184Z,100.00
2022-09-07T08:26:18.572Z,100.00
2022-09-07T08:28:46.213Z,100.00
2022-09-07T08:31:16.309Z,100.00
2022-09-07T08:33:42.709Z,100.00
2022-09-07T08:36:12.783Z,100.00
2022-09-07T08:38:39.517Z,100.00
2022-09-07T08:41:54.002Z,100.00
2022-09-07T08:44:40.797Z,100.00
2022-09-07T08:47:23.296Z,97.16
2022-09-07T08:50:10.336Z,96.11
2022-09-07T08:53:01.471Z,99.76
2022-09-07T08:55:34.745Z,100.00
2022-09-07T08:58:32.651Z,99.53
2022-09-07T09:06:59.916Z,94.22
2022-09-07T09:09:47.840Z,96.04
2022-09-07T09:12:26.961Z,89.90
2022-09-07T09:15:26.271Z,89.82
2022-09-07T09:18:01.284Z,95.25
2022-09-07T09:20:37.633Z,91.71
2022-09-07T09:23:12.945Z,91.84
2022-09-07T09:25:59.702Z,90.04
2022-09-07T09:28:28.785Z,85.34
2022-09-07T09:30:56.757Z,85.45
2022-09-07T09:33:28.758Z,82.87
2022-09-07T09:35:58.125Z,81.40
2022-09-07T09:38:40.659Z,83.56
2022-09-07T09:41:07.879Z,84.37
2022-09-07T09:43:43.518Z,83.99
2022-09-07T09:46:17.969Z,81.82
2022-09-07T09:48:51.870Z,81.12
2022-09-07T09:54:24.038Z,76.82
2022-09-07T09:56:50.693Z,71.46
2022-09-07T10:05:35.471Z,73.69
2022-09-07T10:08:02.722Z,64.70
2022-09-07T10:10:29.788Z,64.25
2022-09-07T10:12:56.729Z,65.44
2022-09-07T10:15:32.834Z,68.26
2022-09-07T10:18:04.384Z,68.10
2022-09-07T10:20:34.957Z,61.99
2022-09-07T10:23:02.333Z,63.59
2022-09-07T10:25:39.978Z,66.37
2022-09-07T10:28:15.443Z,68.04
2022-09-07T10:31:15.278Z,68.52
2022-09-07T10:34:33.307Z,69.94
2022-09-07T10:37:11.363Z,68.81
2022-09-07T10:39:42.093Z,70.95
2022-09-07T10:42:22.524Z,69.49
2022-09-07T10:44:54.148Z,65.45
2022-09-07T10:47:38.830Z,60.28
2022-09-07T10:50:22.400Z,55.32
2022-09-07T10:54:29.421Z,54.86
2022-09-07T10:56:51.772Z,53.22
2022-09-07T11:02:37.998Z,53.59
2022-09-07T11:05:28.630Z,52.34
2022-09-07T11:08:05.860Z,52.03
2022-09-07T11:11:04.043Z,49.20
2022-09-07T11:13:44.769Z,51.14
2022-09-07T11:19:41.289Z,57.91
2022-09-07T11:22:41.280Z,57.50
2022-09-07T11:25:34.808Z,57.64
2022-09-07T11:28:14.289Z,59.91
2022-09-07T11:30:47.359Z,57.56
2022-09-07T11:33:21.763Z,60.43
2022-09-07T11:36:03.517Z,57.74
2022-09-07T11:38:39.124Z,58.12
2022-09-07T11:41:32.053Z,56.32
2022-09-07T11:44:33.426Z,54.34
2022-09-07T11:47:12.837Z,56.46
2022-09-07T11:49:39.117Z,57.17
2022-09-07T11:52:28.545Z,58.81
2022-09-07T11:54:59.630Z,61.07
2022-09-07T11:57:41.738Z,58.88
2022-09-07T12:00:18.350Z,61.05
2022-09-07T12:03:07.113Z,63.45
2022-09-07T12:05:57.854Z,63.43
2022-09-07T12:08:43.023Z,64.30
2022-09-07T12:11:28.442Z,63.79
2022-09-07T12:14:00.609Z,62.67
2022-09-07T12:16:44.280Z,62.18
2022-09-07T12:19:25.007Z,56.47
2022-09-07T12:21:51.290Z,57.14
2022-09-07T12:24:43.396Z,58.66
2022-09-07T12:27:21.713Z,55.92
2022-09-07T12:29:50.180Z,57.77
2022-09-07T12:32:55.733Z,58.80
2022-09-07T12:35:26.167Z,60.67
2022-09-07T12:37:56.456Z,61.47
2022-09-07T12:40:29.058Z,60.74
2022-09-07T12:43:16.989Z,63.29
2022-09-07T12:45:43.289Z,63.25
2022-09-07T12:48:15.572Z,62.96
2022-09-07T12:51:06.089Z,60.31
2022-09-07T12:54:09.596Z,59.38
2022-09-07T12:56:44.549Z,59.11
2022-09-07T12:59:37.512Z,57.82
2022-09-07T13:02:09.996Z,58.47
2022-09-07T13:04:53.853Z,59.26
2022-09-07T13:07:35.231Z,60.26
2022-09-07T13:10:15.585Z,57.19
2022-09-07T13:12:57.262Z,59.33
2022-09-07T13:15:48.859Z,60.40
2022-09-07T13:18:27.709Z,59.45
2022-09-07T13:21:18.320Z,58.93
2022-09-07T13:27:24.804Z,59.63
2022-09-07T13:29:59.502Z,57.81
2022-09-07T13:35:23.395Z,58.11
2022-09-07T13:37:57.773Z,54.93
2022-09-07T13:40:26.977Z,58.13
2022-09-07T13:42:55.657Z,56.33
2022-09-07T13:45:30.025Z,56.25
2022-09-07T13:48:21.631Z,55.08
2022-09-07T13:51:20.232Z,55.39
2022-09-07T13:54:00.314Z,54.14
2022-09-07T13:57:02.864Z,57.70
2022-09-07T13:59:33.434Z,55.00
2022-09-07T14:01:59.987Z,55.29
2022-09-07T14:04:32.821Z,54.44
2022-09-07T14:07:12.121Z,54.43
2022-09-07T14:09:38.696Z,55.00
2022-09-07T14:12:14.136Z,56.77
2022-09-07T14:14:40.440Z,57.05
2022-09-07T14:17:13.937Z,58.40
2022-09-07T14:19:49.721Z,59.20
2022-09-07T14:22:18.957Z,56.02
2022-09-07T14:24:52.836Z,55.89
2022-09-07T14:27:39.781Z,57.15
2022-09-07T14:30:33.276Z,56.20
2022-09-07T14:33:17.307Z,55.78
2022-09-07T14:35:44.005Z,56.54
2022-09-07T14:38:14.216Z,55.64
2022-09-07T14:40:41.183Z,59.82
2022-09-07T14:43:28.382Z,58.29
2022-09-07T14:46:10.279Z,59.97
2022-09-07T14:48:39.592Z,61.27
2022-09-07T14:51:29.785Z,59.50
2022-09-07T14:53:59.424Z,56.95
2022-09-07T14:56:34.454Z,58.11
2022-09-07T14:59:01.129Z,58.89
2022-09-07T15:01:43.105Z,60.06
2022-09-07T15:04:18.440Z,65.30
2022-09-07T15:07:02.307Z,67.91
2022-09-07T15:09:35.505Z,62.42
2022-09-07T15:12:03.998Z,64.65
2022-09-07T15:14:30.438Z,60.20
2022-09-07T15:19:47.018Z,60.80
2022-09-07T15:22:13.639Z,61.52
2022-09-07T15:24:40.008Z,60.07
2022-09-07T15:27:19.261Z,55.19
2022-09-07T15:29:45.629Z,59.86
2022-09-07T15:32:12.029Z,58.31
2022-09-07T15:34:38.425Z,55.49
2022-09-07T15:38:01.188Z,57.55
2022-09-07T15:39:52.730Z,60.95
2022-09-07T15:45:06.223Z,60.61
2022-09-07T15:47:51.549Z,59.23
2022-09-07T15:50:19.172Z,59.09
2022-09-07T15:52:46.467Z,56.29
2022-09-07T15:55:13.497Z,57.04
2022-09-07T15:58:10.586Z,56.32
2022-09-07T16:00:26.737Z,58.31
2022-09-07T16:03:09.094Z,63.08
2022-09-07T16:05:35.766Z,60.03
2022-09-07T16:10:54.094Z,58.80
2022-09-07T16:13:23.789Z,58.98
2022-09-07T16:15:50.435Z,59.40
2022-09-07T16:18:18.049Z,61.20
2022-09-07T16:20:45.418Z,64.92
2022-09-07T16:23:14.989Z,66.78
2022-09-07T16:25:43.079Z,66.00
2022-09-07T16:28:09.713Z,66.63
2022-09-07T16:30:39.400Z,67.03
2022-09-07T16:33:06.081Z,66.07
2022-09-07T16:35:32.849Z,67.30
2022-09-07T16:40:46.246Z,67.71
2022-09-07T16:43:12.582Z,68.37
2022-09-07T16:48:25.127Z,70.56
2022-09-07T16:51:00.448Z,71.00
2022-09-07T16:53:33.643Z,70.74
2022-09-07T16:56:02.127Z,69.54
2022-09-07T16:58:36.275Z,67.27
2022-09-07T17:01:07.345Z,66.79
2022-09-07T17:03:34.179Z,64.46
2022-09-07T17:06:01.398Z,63.72
2022-09-07T17:08:28.292Z,63.60
2022-09-07T17:11:01.636Z,63.53
2022-09-07T17:13:28.284Z,62.84
2022-09-07T17:15:54.828Z,62.45
2022-09-07T17:19:29.011Z,64.20
2022-09-07T17:21:07.935Z,63.46
2022-09-07T17:23:44.138Z,64.83
2022-09-07T17:26:17.013Z,64.08
2022-09-07T17:28:45.209Z,64.27
2022-09-07T17:34:07.109Z,63.80
2022-09-07T17:36:34.333Z,63.89
2022-09-07T17:39:18.065Z,63.82
2022-09-07T17:41:46.399Z,65.30
2022-09-07T17:44:12.705Z,66.60
2022-09-07T17:46:39.271Z,65.99
2022-09-07T17:49:07.839Z,66.23
2022-09-07T17:51:35.712Z,69.44
2022-09-07T17:54:09.719Z,70.34
2022-09-07T17:56:36.583Z,68.76
2022-09-07T18:01:49.316Z,73.77
2022-09-07T18:04:15.584Z,71.92
2022-09-07T18:06:41.980Z,73.50
2022-09-07T18:09:08.673Z,73.62
2022-09-07T18:11:51.031Z,73.03
2022-09-07T18:14:18.703Z,72.52
2022-09-07T18:16:48.804Z,73.69
2022-09-07T18:19:15.714Z,75.80
2022-09-07T18:21:43.614Z,76.44
2022-09-07T18:24:17.070Z,75.98
2022-09-07T18:26:53.539Z,77.65
2022-09-07T18:29:37.569Z,78.96
2022-09-07T18:32:08.664Z,79.52
2022-09-07T18:34:36.435Z,79.29
2022-09-07T18:37:03.022Z,79.91
2022-09-07T18:39:29.825Z,80.44
2022-09-07T18:41:56.593Z,80.67
2022-09-07T18:47:20.779Z,82.02
2022-09-07T18:49:48.792Z,80.96
2022-09-07T18:55:01.888Z,80.79
2022-09-07T18:57:28.478Z,79.73
2022-09-07T18:59:54.797Z,80.59
2022-09-07T19:02:21.271Z,80.53
2022-09-07T19:07:34.328Z,80.57
2022-09-07T19:10:01.098Z,81.00
2022-09-07T19:12:28.064Z,81.56
2022-09-07T19:14:54.474Z,82.40
2022-09-07T19:17:20.877Z,82.80
2022-09-07T19:19:48.420Z,83.82
2022-09-07T19:22:14.719Z,83.67
2022-09-07T19:24:41.070Z,84.52
2022-09-07T19:27:07.437Z,86.05
2022-09-07T19:29:33.821Z,86.39
2022-09-07T19:32:11.632Z,86.57
2022-09-07T19:34:40.075Z,86.31
2022-09-07T19:37:07.984Z,86.77
2022-09-07T19:39:34.422Z,88.01
2022-09-07T19:42:02.774Z,88.09
2022-09-07T19:44:29.111Z,86.97
2022-09-07T19:46:55.926Z,87.29
2022-09-07T19:49:23.256Z,88.37
2022-09-07T19:51:51.700Z,88.23
2022-09-07T19:54:18.341Z,88.92
2022-09-07T19:56:44.759Z,88.79
2022-09-07T19:59:12.001Z,88.51
2022-09-07T20:01:40.033Z,88.97
2022-09-07T20:04:12.216Z,89.42
2022-09-07T20:06:40.575Z,89.30
2022-09-07T20:09:08.181Z,88.75
2022-09-07T20:11:36.124Z,88.90
2022-09-07T20:14:03.088Z,88.85
2022-09-07T20:16:30.919Z,88.45
2022-09-07T20:18:58.627Z,88.19
2022-09-07T20:21:26.115Z,88.75
2022-09-07T20:23:52.508Z,89.59
2022-09-07T20:26:20.810Z,88.89
2022-09-07T20:29:16.333Z,89.19
2022-09-07T20:31:42.881Z,89.17
2022-09-07T20:34:09.960Z,88.66
2022-09-07T20:36:36.566Z,89.03
2022-09-07T20:39:04.489Z,88.80
2022-09-07T20:41:33.859Z,88.04
2022-09-07T20:44:02.162Z,88.12
2022-09-07T20:46:30.262Z,87.33
2022-09-07T20:48:56.820Z,87.43
2022-09-07T20:51:23.517Z,88.58
2022-09-07T20:53:49.992Z,88.12
2022-09-07T20:56:21.253Z,88.51
2022-09-07T20:58:49.460Z,89.09
2022-09-07T21:01:17.961Z,89.12
2022-09-07T21:03:49.233Z,88.16
2022-09-07T21:06:16.361Z,89.07
2022-09-07T21:08:44.285Z,87.91
2022-09-07T21:11:16.929Z,88.69
2022-09-07T21:13:43.364Z,88.02
2022-09-07T21:16:14.792Z,87.06
2022-09-07T21:18:41.855Z,87.92
2022-09-07T21:21:23.682Z,87.71
2022-09-07T21:23:55.639Z,87.82
2022-09-07T21:26:22.783Z,88.99
2022-09-07T21:28:55.109Z,88.92
2022-09-07T21:31:21.579Z,88.92
2022-09-07T21:33:47.903Z,87.26
2022-09-07T21:36:14.235Z,89.19
2022-09-07T21:38:41.341Z,89.05
2022-09-07T21:41:16.992Z,88.90
2022-09-07T21:43:43.281Z,88.79
2022-09-07T21:46:18.073Z,89.54
2022-09-07T21:48:45.553Z,89.49
2022-09-07T21:51:13.439Z,89.68
2022-09-07T21:53:40.104Z,89.78
2022-09-07T21:56:09.447Z,90.21
2022-09-07T21:58:35.861Z,91.06
2022-09-07T22:01:14.301Z,91.10
2022-09-07T22:03:41.794Z,90.25
2022-09-07T22:06:09.540Z,91.63
2022-09-07T22:08:37.910Z,91.01
2022-09-07T22:11:24.059Z,91.80
2022-09-07T22:13:54.960Z,91.68
2022-09-07T22:16:21.914Z,90.83
2022-09-07T22:18:48.681Z,91.09
2022-09-07T22:21:21.199Z,91.48
2022-09-07T22:23:50.053Z,91.25
2022-09-07T22:26:19.434Z,91.43
2022-09-07T22:28:46.665Z,91.18
2022-09-07T22:31:22.114Z,90.97
2022-09-07T22:33:50.185Z,91.17
2022-09-07T22:36:31.208Z,90.41
2022-09-07T22:38:59.457Z,91.05
2022-09-07T22:41:28.300Z,89.93
2022-09-07T22:43:55.271Z,89.64
2022-09-07T22:46:24.602Z,89.57
2022-09-07T22:48:53.335Z,89.97
2022-09-07T22:51:19.866Z,90.09
2022-09-07T22:53:46.173Z,89.80
2022-09-07T22:56:15.562Z,89.27
2022-09-07T22:59:03.275Z,89.78
2022-09-07T23:01:30.722Z,90.76
2022-09-07T23:03:57.535Z,90.32
2022-09-07T23:06:25.458Z,90.22
2022-09-07T23:08:52.785Z,90.43
2022-09-07T23:11:19.749Z,89.40
2022-09-07T23:13:50.414Z,88.86
2022-09-07T23:16:16.806Z,90.73
2022-09-07T23:18:43.138Z,90.10
2022-09-07T23:21:10.483Z,89.98
2022-09-07T23:23:37.037Z,90.04
2022-09-07T23:26:04.421Z,89.61
2022-09-07T23:28:32.040Z,90.40
2022-09-07T23:30:59.205Z,88.92
2022-09-07T23:33:26.633Z,88.32
2022-09-07T23:35:57.996Z,90.68
2022-09-07T23:38:25.377Z,91.20
2022-09-07T23:40:52.025Z,91.38
2022-09-07T23:43:18.684Z,90.67
2022-09-07T23:45:44.997Z,91.71
2022-09-07T23:48:11.509Z,92.02
2022-09-07T23:50:37.837Z,92.11
2022-09-07T23:53:04.166Z,93.26
2022-09-07T23:55:30.498Z,93.25
2022-09-07T23:57:57.064Z,93.01
